地図

経路データ

SID SEASON NUMBER BASIN SUBBASIN NAME ISO_TIME NATURE LAT LON WMO_WIND WMO_PRES WMO_AGENCY TRACK_TYPE DIST2LAND LANDFALL IFLAG USA_AGENCY USA_ATCF_ID USA_LAT USA_LON USA_RECORD USA_STATUS USA_WIND USA_PRES USA_SSHS USA_R34_NE USA_R34_SE USA_R34_SW USA_R34_NW USA_R50_NE USA_R50_SE USA_R50_SW USA_R50_NW USA_R64_NE USA_R64_SE USA_R64_SW USA_R64_NW USA_POCI USA_ROCI USA_RMW USA_EYE TOKYO_LAT TOKYO_LON TOKYO_GRADE TOKYO_WIND TOKYO_PRES TOKYO_R50_DIR TOKYO_R50_LONG TOKYO_R50_SHORT TOKYO_R30_DIR TOKYO_R30_LONG TOKYO_R30_SHORT TOKYO_LAND CMA_LAT CMA_LON CMA_CAT CMA_WIND CMA_PRES HKO_LAT HKO_LON HKO_CAT HKO_WIND HKO_PRES NEWDELHI_LAT NEWDELHI_LON NEWDELHI_GRADE NEWDELHI_WIND NEWDELHI_PRES NEWDELHI_CI NEWDELHI_DP NEWDELHI_POCI REUNION_LAT REUNION_LON REUNION_TYPE REUNION_WIND REUNION_PRES REUNION_TNUM REUNION_CI REUNION_RMW REUNION_R34_NE REUNION_R34_SE REUNION_R34_SW REUNION_R34_NW REUNION_R50_NE REUNION_R50_SE REUNION_R50_SW REUNION_R50_NW REUNION_R64_NE REUNION_R64_SE REUNION_R64_SW REUNION_R64_NW BOM_LAT BOM_LON BOM_TYPE BOM_WIND BOM_PRES BOM_TNUM BOM_CI BOM_RMW BOM_R34_NE BOM_R34_SE BOM_R34_SW BOM_R34_NW BOM_R50_NE BOM_R50_SE BOM_R50_SW BOM_R50_NW BOM_R64_NE BOM_R64_SE BOM_R64_SW BOM_R64_NW BOM_ROCI BOM_POCI BOM_EYE BOM_POS_METHOD BOM_PRES_METHOD NADI_LAT NADI_LON NADI_CAT NADI_WIND NADI_PRES WELLINGTON_LAT WELLINGTON_LON WELLINGTON_WIND WELLINGTON_PRES DS824_LAT DS824_LON DS824_STAGE DS824_WIND DS824_PRES TD9636_LAT TD9636_LON TD9636_STAGE TD9636_WIND TD9636_PRES TD9635_LAT TD9635_LON TD9635_WIND TD9635_PRES TD9635_ROCI NEUMANN_LAT NEUMANN_LON NEUMANN_CLASS NEUMANN_WIND NEUMANN_PRES MLC_LAT MLC_LON MLC_CLASS MLC_WIND MLC_PRES USA_GUST BOM_GUST BOM_GUST_PER REUNION_GUST REUNION_GUST_PER USA_SEAHGT USA_SEARAD_NE USA_SEARAD_SE USA_SEARAD_SW USA_SEARAD_NW STORM_SPEED STORM_DIR
1877260N17327 1877 29 NA NA NOT_NAMED 1877-09-16 12:00:00 TS 16.9000 -33.4000 main 1719 1719 _____________O -1 16.9000 -33.4000 TD 30 13 261
1877260N17327 1877 29 NA NA NOT_NAMED 1877-09-16 15:00:00 TS 16.8004 -34.0501 main 1792 1792 _____________P -1 16.8004 -34.0501 TD 30 13 261
1877260N17327 1877 29 NA NA NOT_NAMED 1877-09-16 18:00:00 TS 16.7000 -34.7000 main 1854 1854 _____________O -1 16.7000 -34.7000 TD 30 13 261
1877260N17327 1877 29 NA NA NOT_NAMED 1877-09-16 21:00:00 TS 16.5998 -35.3499 main 1917 1917 _____________P -1 16.5998 -35.3499 TD 32 13 261
1877260N17327 1877 29 NA NA NOT_NAMED 1877-09-17 00:00:00 TS 16.5000 -36.0000 main 1991 1991 _____________O -1 16.5000 -36.0000 TS 35 13 261
1877260N17327 1877 29 NA NA NOT_NAMED 1877-09-17 03:00:00 TS 16.3998 -36.6499 main 2054 2036 _____________P -1 16.3998 -36.6499 TS 35 13 261
1877260N17327 1877 29 NA NA NOT_NAMED 1877-09-17 06:00:00 TS 16.3000 -37.3000 main 2036 1980 _____________O -1 16.3000 -37.3000 TS 35 13 261
1877260N17327 1877 29 NA NA NOT_NAMED 1877-09-17 09:00:00 TS 16.2073 -37.9499 main 1980 1916 _____________P -1 16.2073 -37.9499 TS 35 13 261
1877260N17327 1877 29 NA NA NOT_NAMED 1877-09-17 12:00:00 TS 16.1000 -38.6000 main 1916 1861 _____________O -1 16.1000 -38.6000 TS 35 13 258
1877260N17327 1877 29 NA NA NOT_NAMED 1877-09-17 15:00:00 TS 15.9498 -39.2500 main 1846 1792 _____________P -1 15.9498 -39.2500 TS 35 13 256
1877260N17327 1877 29 NA NA NOT_NAMED 1877-09-17 18:00:00 TS 15.8000 -39.9000 main 1792 1739 _____________O -1 15.8000 -39.9000 TS 35 13 258
1877260N17327 1877 29 NA NA NOT_NAMED 1877-09-17 21:00:00 TS 15.6923 -40.5499 main 1739 1680 _____________P -1 15.6923 -40.5499 TS 37 13 261
1877260N17327 1877 29 NA NA NOT_NAMED 1877-09-18 00:00:00 TS 15.6000 -41.2000 main 1680 1629 _____________O -1 15.6000 -41.2000 TS 40 13 262
1877260N17327 1877 29 NA NA NOT_NAMED 1877-09-18 03:00:00 TS 15.5073 -41.8499 main 1629 1572 _____________P -1 15.5073 -41.8499 TS 40 13 261
1877260N17327 1877 29 NA NA NOT_NAMED 1877-09-18 06:00:00 TS 15.4000 -42.5000 main 1572 1524 _____________O -1 15.4000 -42.5000 TS 40 13 258
1877260N17327 1877 29 NA NA NOT_NAMED 1877-09-18 09:00:00 TS 15.2498 -43.1500 main 1509 1462 _____________P -1 15.2498 -43.1500 TS 40 13 257
1877260N17327 1877 29 NA NA NOT_NAMED 1877-09-18 12:00:00 TS 15.1000 -43.8000 main 1462 1416 _____________O -1 15.1000 -43.8000 TS 40 13 258
1877260N17327 1877 29 NA NA NOT_NAMED 1877-09-18 15:00:00 TS 14.9923 -44.4499 main 1416 1361 _____________P -1 14.9923 -44.4499 TS 40 13 261
1877260N17327 1877 29 NA NA NOT_NAMED 1877-09-18 18:00:00 TS 14.9000 -45.1000 main 1361 1313 _____________O -1 14.9000 -45.1000 TS 40 13 261
1877260N17327 1877 29 NA NA NOT_NAMED 1877-09-18 21:00:00 TS 14.7998 -45.7499 main 1313 1262 _____________P -1 14.7998 -45.7499 TS 42 13 261
1877260N17327 1877 29 NA NA NOT_NAMED 1877-09-19 00:00:00 TS 14.7000 -46.4000 main 1262 1218 _____________O -1 14.7000 -46.4000 TS 45 13 261
1877260N17327 1877 29 NA NA NOT_NAMED 1877-09-19 03:00:00 TS 14.5998 -47.0499 main 1218 1171 _____________P -1 14.5998 -47.0499 TS 45 13 261
1877260N17327 1877 29 NA NA NOT_NAMED 1877-09-19 06:00:00 TS 14.5000 -47.7000 main 1171 1132 _____________O -1 14.5000 -47.7000 TS 45 13 261
1877260N17327 1877 29 NA NA NOT_NAMED 1877-09-19 09:00:00 TS 14.3998 -48.3499 main 1132 1090 _____________P -1 14.3998 -48.3499 TS 45 13 261
1877260N17327 1877 29 NA NA NOT_NAMED 1877-09-19 12:00:00 TS 14.3000 -49.0000 main 1090 1056 _____________O -1 14.3000 -49.0000 TS 45 13 261
1877260N17327 1877 29 NA NA NOT_NAMED 1877-09-19 15:00:00 TS 14.2073 -49.6499 main 1056 1012 _____________P -1 14.2073 -49.6499 TS 45 13 261
1877260N17327 1877 29 NA NA NOT_NAMED 1877-09-19 18:00:00 TS 14.1000 -50.3000 main 1012 976 _____________O -1 14.1000 -50.3000 TS 45 13 258
1877260N17327 1877 29 NA NA NOT_NAMED 1877-09-19 21:00:00 TS 13.9498 -50.9500 main 962 929 _____________P -1 13.9498 -50.9500 TS 47 13 257
1877260N17327 1877 29 NA NA NOT_NAMED 1877-09-20 00:00:00 TS 13.8000 -51.6000 main 929 900 _____________O -1 13.8000 -51.6000 TS 50 13 258
1877260N17327 1877 29 NA NA NOT_NAMED 1877-09-20 03:00:00 TS 13.6923 -52.2499 main 900 874 _____________P -1 13.6923 -52.2499 TS 50 13 261
1877260N17327 1877 29 NA NA NOT_NAMED 1877-09-20 06:00:00 TS 13.6000 -52.9000 main 874 854 _____________O -1 13.6000 -52.9000 TS 50 13 262
1877260N17327 1877 29 NA NA NOT_NAMED 1877-09-20 09:00:00 TS 13.5073 -53.5499 main 854 799 _____________P -1 13.5073 -53.5499 TS 50 13 261
1877260N17327 1877 29 NA NA NOT_NAMED 1877-09-20 12:00:00 TS 13.4000 -54.2000 main 799 734 _____________O -1 13.4000 -54.2000 TS 50 13 258
1877260N17327 1877 29 NA NA NOT_NAMED 1877-09-20 15:00:00 TS 13.2498 -54.8500 main 720 656 _____________P -1 13.2498 -54.8500 TS 50 13 257
1877260N17327 1877 29 NA NA NOT_NAMED 1877-09-20 18:00:00 TS 13.1000 -55.5000 main 656 592 _____________O -1 13.1000 -55.5000 TS 50 13 259
1877260N17327 1877 29 NA NA NOT_NAMED 1877-09-20 21:00:00 TS 12.9923 -56.1499 main 592 540 _____________P -1 12.9923 -56.1499 TS 52 10 235
1877260N17327 1877 29 NA NA NOT_NAMED 1877-09-21 00:00:00 TS 12.5000 -56.3667 50 hurdat_atl main 540 501 O____________O hurdat_atl AL041877 11.7000 -55.5000 TS 50 0 12.9000 -56.8000 TS 55 9 217
1877260N17327 1877 29 NA NA NOT_NAMED 1877-09-21 03:00:00 TS 12.2512 -56.7175 main 501 453 P____________P AL041877 11.7027 -55.9850 TS 50 0 12.7998 -57.4499 TS 57 9 242
1877260N17327 1877 29 NA NA NOT_NAMED 1877-09-21 06:00:00 TS 12.1000 -57.1400 50 hurdat_atl main 453 398 O____________O hurdat_atl AL041877 11.7000 -56.5000 TS 50 0 12.7000 -58.1000 TS 60 9 254
1877260N17327 1877 29 NA NA NOT_NAMED 1877-09-21 09:00:00 TS 11.9924 -57.6325 main 398 338 P____________P AL041877 11.6924 -57.0701 TS 55 0 12.5924 -58.7575 TS 60 11 263
1877260N17327 1877 29 NA NA NOT_NAMED 1877-09-21 12:00:00 TS 11.9667 -58.2667 60 hurdat_atl main 328 271 O____________O hurdat_atl AL041877 11.7000 -57.7000 TS 60 0 12.5000 -59.4000 TS 60 13 269
1877260N17327 1877 29 NA NA NOT_NAMED 1877-09-21 15:00:00 TS 11.9808 -58.9332 main 271 211 P____________P AL041877 11.7499 -58.3849 TS 60 0 12.4425 -60.0299 TS 62 13 271
1877260N17327 1877 29 NA NA NOT_NAMED 1877-09-21 18:00:00 TS 12.0000 -59.6000 60 hurdat_atl main 211 169 O____________O hurdat_atl AL041877 11.8000 -59.1000 TS 60 0 12.4000 -60.6000 HU 65 13 270
1877260N17327 1877 29 NA CS NOT_NAMED 1877-09-21 21:00:00 TS 11.9881 -60.2117 main 169 147 P____________P AL041877 11.8073 -59.7926 TS 65 1 12.3497 -61.0500 HU 67 12 268
1877260N17327 1877 29 NA CS NOT_NAMED 1877-09-22 00:00:00 TS 11.9667 -60.8333 70 hurdat_atl main 147 145 O____________O hurdat_atl AL041877 11.8000 -60.5000 HU 70 1 12.3000 -61.5000 HU 70 13 269
1877260N17327 1877 29 NA CS NOT_NAMED 1877-09-22 03:00:00 TS 11.9550 -61.5308 main 145 134 P____________P AL041877 11.8075 -61.2574 HU 70 1 12.2500 -62.0775 HU 72 14 269
1877260N17327 1877 29 NA CS NOT_NAMED 1877-09-22 06:00:00 TS 11.9333 -62.2333 70 hurdat_atl main 134 134 O____________O hurdat_atl AL041877 11.8000 -62.0000 HU 70 1 12.2000 -62.7000 HU 75 13 267
1877260N17327 1877 29 NA CS NOT_NAMED 1877-09-22 09:00:00 TS 11.8882 -62.8892 main 134 125 P____________P AL041877 11.7573 -62.6800 HU 75 1 12.1499 -63.3075 HU 77 12 265
1877260N17327 1877 29 NA CS NOT_NAMED 1877-09-22 12:00:00 TS 11.8333 -63.5000 80 hurdat_atl main 130 130 O____________O hurdat_atl AL041877 11.7000 -63.3000 HU 80 1 12.1000 -63.9000 HU 80 11 264
1877260N17327 1877 29 NA CS NOT_NAMED 1877-09-22 15:00:00 TS 11.7755 -64.0450 main 134 123 P____________P AL041877 11.6422 -63.8425 HU 80 1 12.0423 -64.4500 HU 82 11 265
1877260N17327 1877 29 NA CS NOT_NAMED 1877-09-22 18:00:00 TS 11.7333 -64.6000 80 hurdat_atl main 130 130 O____________O hurdat_atl AL041877 11.6000 -64.4000 HU 80 1 12.0000 -65.0000 HU 85 12 268
1877260N17327 1877 29 NA CS NOT_NAMED 1877-09-22 21:00:00 TS 11.7284 -65.2591 main 144 123 P____________P AL041877 11.5926 -65.0925 HU 85 2 11.9999 -65.5924 HU 87 13 270
1877260N17327 1877 29 NA CS NOT_NAMED 1877-09-23 00:00:00 TS 11.7333 -65.9333 90 hurdat_atl main 123 123 O____________O hurdat_atl AL041877 11.6000 -65.8000 HU 90 2 12.0000 -66.2000 HU 90 13 269
1877260N17327 1877 29 NA CS NOT_NAMED 1877-09-23 03:00:00 TS 11.7115 -66.5559 main 123 123 P____________P AL041877 11.5924 -66.4300 HU 90 2 11.9499 -66.8076 HU 92 12 268
1877260N17327 1877 29 NA CS NOT_NAMED 1877-09-23 06:00:00 TS 11.7000 -67.1333 90 hurdat_atl main 123 103 O____________O hurdat_atl AL041877 11.6000 -67.0000 HU 90 2 11.9000 -67.4000 HU 95 11 271
1877260N17327 1877 29 NA CS NOT_NAMED 1877-09-23 09:00:00 TS 11.7231 -67.6550 main 94 70 P____________P AL041877 11.6423 -67.5075 HU 90 2 11.8848 -67.9500 HU 97 10 274
1877260N17327 1877 29 NA CS NOT_NAMED 1877-09-23 12:00:00 TS 11.7667 -68.1667 90 hurdat_atl main 70 46 O____________O hurdat_atl AL041877 11.7000 -68.0000 HU 90 2 11.9000 -68.5000 MH 100 11 274
1877260N17327 1877 29 NA CS NOT_NAMED 1877-09-23 15:00:00 TS 11.8041 -68.7284 main 46 44 P____________P AL041877 11.7349 -68.5351 HU 90 2 11.9425 -69.1150 MH 100 11 275
1877260N17327 1877 29 NA CS NOT_NAMED 1877-09-23 18:00:00 TS 11.8667 -69.3000 90 hurdat_atl main 54 0 O____________O hurdat_atl AL041877 11.8000 -69.1000 HU 90 2 12.0000 -69.7000 MH 100 961 11 279
1877260N17327 1877 29 NA CS NOT_NAMED 1877-09-23 21:00:00 TS 11.9757 -69.8575 main 0 0 P____________P AL041877 11.9425 -69.6999 HU 90 2 12.0423 -70.1726 MH 100 11 282
1877260N17327 1877 29 NA CS NOT_NAMED 1877-09-24 00:00:00 TS 12.1000 -70.4000 90 hurdat_atl main 21 21 O____________O hurdat_atl AL041877 12.1000 -70.3000 HU 90 2 12.1000 -70.6000 MH 100 11 282
1877260N17327 1877 29 NA CS NOT_NAMED 1877-09-24 03:00:00 TS 12.1949 -70.9218 main 24 0 P____________P AL041877 12.1923 -70.8577 HU 90 2 12.1999 -71.0500 MH 100 10 281
1877260N17327 1877 29 NA NA NOT_NAMED 1877-09-24 06:00:00 TS 12.3000 -71.4333 90 hurdat_atl main 0 0 O____________O hurdat_atl AL041877 12.3000 -71.4000 HU 90 2 12.3000 -71.5000 MH 100 10 284
1877260N17327 1877 29 NA CS NOT_NAMED 1877-09-24 09:00:00 TS 12.4474 -71.9500 main 11 11 P____________P AL041877 12.4924 -71.9499 HU 90 2 12.3574 -71.9501 MH 100 11 287
1877260N17327 1877 29 NA CS NOT_NAMED 1877-09-24 12:00:00 TS 12.6000 -72.4667 90 hurdat_atl main 55 55 O____________O hurdat_atl AL041877 12.7000 -72.5000 HU 90 2 12.4000 -72.4000 MH 100 11 285
1877260N17327 1877 29 NA CS NOT_NAMED 1877-09-24 15:00:00 TS 12.7241 -72.9884 main 103 103 P____________P AL041877 12.8574 -73.0576 HU 90 2 12.4574 -72.8500 MH 100 10 283
1877260N17327 1877 29 NA CS NOT_NAMED 1877-09-24 18:00:00 TS 12.8333 -73.5000 90 hurdat_atl main 144 144 O____________O hurdat_atl AL041877 13.0000 -73.6000 HU 90 2 12.5000 -73.3000 MH 100 10 282
1877260N17327 1877 29 NA CS NOT_NAMED 1877-09-24 21:00:00 TS 12.9281 -73.9735 main 187 187 P____________P AL041877 13.1422 -74.0852 HU 85 2 12.4999 -73.7501 MH 100 10 282
1877260N17327 1877 29 NA CS NOT_NAMED 1877-09-25 00:00:00 TS 13.0333 -74.4667 80 hurdat_atl main 204 204 O____________O hurdat_atl AL041877 13.3000 -74.6000 HU 80 1 12.5000 -74.2000 MH 100 11 284
1877260N17327 1877 29 NA CS NOT_NAMED 1877-09-25 03:00:00 TS 13.1834 -75.0449 main 240 240 P____________P AL041877 13.5001 -75.2424 HU 80 1 12.5499 -74.6499 MH 100 12 285
1877260N17327 1877 29 NA CS NOT_NAMED 1877-09-25 06:00:00 TS 13.3333 -75.6333 80 hurdat_atl main 268 268 O____________O hurdat_atl AL041877 13.7000 -75.9000 HU 80 1 12.6000 -75.1000 MH 100 11 283
1877260N17327 1877 29 NA CS NOT_NAMED 1877-09-25 09:00:00 TS 13.4382 -76.1651 main 303 303 P____________P AL041877 13.8573 -76.4726 HU 80 1 12.5999 -75.5501 MH 100 10 281
1877260N17327 1877 29 NA CS NOT_NAMED 1877-09-25 12:00:00 TS 13.5333 -76.6667 80 hurdat_atl main 338 338 O____________O hurdat_atl AL041877 14.0000 -77.0000 HU 80 1 12.6000 -76.0000 MH 100 10 282
1877260N17327 1877 29 NA CS NOT_NAMED 1877-09-25 15:00:00 TS 13.6448 -77.1501 main 375 375 P____________P AL041877 14.1423 -77.5002 HU 80 1 12.6499 -76.4499 MH 100 10 284
1877260N17327 1877 29 NA CS NOT_NAMED 1877-09-25 18:00:00 TS 13.7667 -77.6333 80 hurdat_atl main 418 418 O____________O hurdat_atl AL041877 14.3000 -78.0000 HU 80 1 12.7000 -76.9000 MH 100 10 285
1877260N17327 1877 29 NA CS NOT_NAMED 1877-09-25 21:00:00 TS 13.9000 -78.1500 main 436 433 P____________P AL041877 14.5000 -78.5499 HU 75 1 12.6999 -77.3501 MH 100 10 285
1877260N17327 1877 29 NA CS NOT_NAMED 1877-09-26 00:00:00 TS 14.0333 -78.6667 70 hurdat_atl main 444 437 O____________O hurdat_atl AL041877 14.7000 -79.1000 HU 70 1 12.7000 -77.8000 MH 100 10 284
1877260N17327 1877 29 NA CS NOT_NAMED 1877-09-26 03:00:00 TS 14.1524 -79.1601 main 429 384 P____________P AL041877 14.8574 -79.6151 HU 70 1 12.7424 -78.2500 MH 100 10 284
1877260N17327 1877 29 NA CS NOT_NAMED 1877-09-26 06:00:00 TS 14.2667 -79.6333 70 hurdat_atl main 384 329 O____________O hurdat_atl AL041877 15.0000 -80.1000 HU 70 1 12.8000 -78.7000 MH 100 9 284
1877260N17327 1877 29 NA CS NOT_NAMED 1877-09-26 09:00:00 TS 14.3758 -80.1034 main 329 285 P____________P AL041877 15.1425 -80.5801 HU 70 1 12.8424 -79.1501 MH 100 9 285
1877260N17327 1877 29 NA CS NOT_NAMED 1877-09-26 12:00:00 TS 14.5000 -80.5333 70 hurdat_atl main 285 240 O____________O hurdat_atl AL041877 15.3000 -81.0000 HU 70 1 12.9000 -79.6000 MH 100 8 290
1877260N17327 1877 29 NA CS NOT_NAMED 1877-09-26 15:00:00 TS 14.6591 -80.9034 main 238 205 P____________P AL041877 15.4924 -81.3300 HU 70 1 12.9924 -80.0500 MH 100 8 296
1877260N17327 1877 29 NA CS NOT_NAMED 1877-09-26 18:00:00 TS 14.8333 -81.2333 70 hurdat_atl main 205 171 O____________O hurdat_atl AL041877 15.7000 -81.6000 HU 70 1 13.1000 -80.5000 MH 100 7 297
1877260N17327 1877 29 NA CS NOT_NAMED 1877-09-26 21:00:00 TS 14.9799 -81.5527 main 161 140 P____________P AL041877 15.8849 -81.8576 HU 70 1 13.1699 -80.9427 MH 100 7 299
1877260N17327 1877 29 NA CS NOT_NAMED 1877-09-27 00:00:00 TS 15.1667 -81.8667 70 hurdat_atl main 130 106 O____________O hurdat_atl AL041877 16.1000 -82.1000 HU 70 1 13.3000 -81.4000 MH 100 8 307
1877260N17327 1877 29 NA CS NOT_NAMED 1877-09-27 03:00:00 TS 15.4566 -82.1999 main 111 100 P____________P AL041877 16.4000 -82.3500 HU 70 1 13.5700 -81.8999 MH 100 9 313
1877260N17327 1877 29 NA CS NOT_NAMED 1877-09-27 06:00:00 TS 15.7667 -82.5333 70 hurdat_atl main 110 92 O____________O hurdat_atl AL041877 16.7000 -82.6000 HU 70 1 13.9000 -82.4000 MH 100 8 311
1877260N17327 1877 29 NA CS NOT_NAMED 1877-09-27 09:00:00 TS 15.9999 -82.8527 main 94 94 P____________P AL041877 16.9000 -82.8502 HU 70 1 14.1999 -82.8577 MH 100 8 307
1877260N17327 1877 29 NA CS NOT_NAMED 1877-09-27 12:00:00 TS 16.2333 -83.1667 70 hurdat_atl main 102 102 O____________O hurdat_atl AL041877 17.1000 -83.1000 HU 70 1 14.5000 -83.3000 MH 100 8 312
1877260N17327 1877 29 NA CS NOT_NAMED 1877-09-27 15:00:00 TS 16.5282 -83.4734 main 114 114 P____________P AL041877 17.3924 -83.3351 HU 70 1 14.7999 -83.7501 MH 97 9 315
1877260N17327 1877 29 NA CS NOT_NAMED 1877-09-27 18:00:00 TS 16.8333 -83.8000 70 hurdat_atl main 123 123 O____________O hurdat_atl AL041877 17.7000 -83.6000 HU 70 1 15.1000 -84.2000 HU 95 9 310
1877260N17327 1877 29 NA CS NOT_NAMED 1877-09-27 21:00:00 TS 17.0949 -84.1685 main 144 144 P____________P AL041877 17.9425 -83.9277 HU 70 1 15.3999 -84.6501 HU 90 9 306
1877260N17327 1877 29 NA CS NOT_NAMED 1877-09-28 00:00:00 TS 17.3667 -84.5667 70 hurdat_atl main 168 167 O____________O hurdat_atl AL041877 18.2000 -84.3000 HU 70 1 15.7000 -85.1000 HU 85 10 307
1877260N17327 1877 29 NA CS NOT_NAMED 1877-09-28 03:00:00 TS 17.6925 -84.9983 main 201 201 P____________P AL041877 18.5426 -84.7223 HU 70 1 15.9924 -85.5502 HU 80 10 310
1877260N17327 1877 29 NA CS NOT_NAMED 1877-09-28 06:00:00 TS 18.0333 -85.4000 70 hurdat_atl main 235 211 O____________O hurdat_atl AL041877 18.9000 -85.1000 HU 70 1 16.3000 -86.0000 HU 75 10 314
1877260N17327 1877 29 NA CS NOT_NAMED 1877-09-28 09:00:00 TS 18.3499 -85.7210 main 211 171 P____________P AL041877 19.2073 -85.3303 HU 70 1 16.6351 -86.5023 HU 75 8 320
1877260N17327 1877 29 NA CS NOT_NAMED 1877-09-28 12:00:00 TS 18.6667 -85.9667 70 hurdat_atl main 167 147 O____________O hurdat_atl AL041877 19.5000 -85.5000 HU 70 1 17.0000 -86.9000 HU 75 8 328
1877260N17327 1877 29 NA CS NOT_NAMED 1877-09-28 15:00:00 TS 19.0049 -86.1584 main 137 117 P____________P AL041877 19.8075 -85.7150 HU 70 1 17.3998 -87.0454 HU 75 7 335
1877260N17327 1877 29 NA CS NOT_NAMED 1877-09-28 18:00:00 TS 19.3333 -86.3000 70 hurdat_atl main 117 104 O____________O hurdat_atl AL041877 20.1000 -85.9000 HU 70 1 17.8000 -87.1000 HU 75 7 338
1877260N17327 1877 29 NA CS NOT_NAMED 1877-09-28 21:00:00 TS 19.6166 -86.4193 main 105 96 P____________P AL041877 20.3499 -86.0077 HU 70 1 18.1500 -87.2426 HU 75 6 339
1877260N17327 1877 29 NA CS NOT_NAMED 1877-09-29 00:00:00 TS 19.9000 -86.5333 70 hurdat_atl main 104 68 O____________O hurdat_atl AL041877 20.6000 -86.1000 HU 70 1 18.5000 -87.4000 HU 75 7 338
1877260N17327 1877 29 NA CS NOT_NAMED 1877-09-29 03:00:00 TS 20.2233 -86.6784 main 68 35 P____________P AL041877 20.8850 -86.2351 HU 70 1 18.9000 -87.5649 HU 75 7 337
1877260N17327 1877 29 NA CS NOT_NAMED 1877-09-29 06:00:00 TS 20.5667 -86.8333 70 hurdat_atl main 24 0 O____________O hurdat_atl AL041877 21.2000 -86.4000 HU 70 1 19.3000 -87.7000 HU 75 8 337
1877260N17327 1877 29 NA NA NOT_NAMED 1877-09-29 09:00:00 TS 20.9217 -86.9933 main 0 0 P____________P AL041877 21.5575 -86.6074 HU 70 1 19.6500 -87.7651 HU 75 8 338
1877260N17327 1877 29 NA NA NOT_NAMED 1877-09-29 12:00:00 TS 21.2667 -87.1333 70 hurdat_atl main 0 0 O____________O hurdat_atl AL041877 21.9000 -86.8000 HU 70 1 20.0000 -87.8000 HU 75 7 341
1877260N17327 1877 29 NA GM NOT_NAMED 1877-09-29 15:00:00 TS 21.5766 -87.2342 main 15 15 P____________P AL041877 22.1650 -86.9226 HU 70 1 20.4000 -87.8575 HU 75 6 346
1877260N17327 1877 29 NA GM NOT_NAMED 1877-09-29 18:00:00 TS 21.8667 -87.3000 70 hurdat_atl main 49 49 O____________O hurdat_atl AL041877 22.4000 -87.0000 HU 70 1 20.8000 -87.9000 HU 75 6 350
1877260N17327 1877 29 NA GM NOT_NAMED 1877-09-29 21:00:00 TS 22.1500 -87.3384 main 70 70 P____________P AL041877 22.6500 -87.0501 HU 70 1 21.1500 -87.9150 HU 72 6 355
1877260N17327 1877 29 NA GM NOT_NAMED 1877-09-30 00:00:00 TS 22.4333 -87.3667 70 hurdat_atl main 105 105 O____________O hurdat_atl AL041877 22.9000 -87.1000 HU 70 1 21.5000 -87.9000 HU 70 6 354
1877260N17327 1877 29 NA GM NOT_NAMED 1877-09-30 03:00:00 TS 22.7333 -87.4167 main 137 137 P____________P AL041877 23.1500 -87.1925 HU 70 1 21.9000 -87.8650 HU 70 6 352
1877260N17327 1877 29 NA GM NOT_NAMED 1877-09-30 06:00:00 TS 23.0333 -87.4667 70 hurdat_atl main 168 168 O____________O hurdat_atl AL041877 23.4000 -87.3000 HU 70 1 22.3000 -87.8000 HU 70 6 352
1877260N17327 1877 29 NA GM NOT_NAMED 1877-09-30 09:00:00 TS 23.3092 -87.5050 main 202 202 P____________P AL041877 23.6500 -87.4000 HU 70 1 22.6275 -87.7148 HU 70 6 355
1877260N17327 1877 29 NA GM NOT_NAMED 1877-09-30 12:00:00 TS 23.6000 -87.5333 70 hurdat_atl main 235 235 O____________O hurdat_atl AL041877 23.9000 -87.5000 HU 70 1 23.0000 -87.6000 HU 70 6 357
1877260N17327 1877 29 NA GM NOT_NAMED 1877-09-30 15:00:00 TS 23.9425 -87.5575 main 268 268 P____________P AL041877 24.1500 -87.6075 HU 70 1 23.5275 -87.4576 HU 70 7 357
1877260N17327 1877 29 NA GM NOT_NAMED 1877-09-30 18:00:00 TS 24.3000 -87.5667 70 hurdat_atl main 313 313 O____________O hurdat_atl AL041877 24.4000 -87.7000 HU 70 1 24.1000 -87.3000 HU 70 7 0
1877260N17327 1877 29 NA GM NOT_NAMED 1877-09-30 21:00:00 TS 24.6358 -87.5624 main 346 346 P____________P AL041877 24.6500 -87.7650 HU 75 1 24.6075 -87.1573 HU 75 7 4
1877260N17327 1877 29 NA GM NOT_NAMED 1877-10-01 00:00:00 TS 24.9667 -87.5333 80 hurdat_atl main 391 391 O____________O hurdat_atl AL041877 24.9000 -87.8000 HU 80 1 25.1000 -87.0000 HU 80 7 7
1877260N17327 1877 29 NA GM NOT_NAMED 1877-10-01 03:00:00 TS 25.2950 -87.4767 main 425 415 P____________P AL041877 25.1425 -87.8150 HU 80 1 25.6000 -86.8000 HU 80 7 10
1877260N17327 1877 29 NA GM NOT_NAMED 1877-10-01 06:00:00 TS 25.6333 -87.4000 80 hurdat_atl main 415 379 O____________O hurdat_atl AL041877 25.4000 -87.8000 HU 80 1 26.1000 -86.6000 HU 80 7 11
1877260N17327 1877 29 NA GM NOT_NAMED 1877-10-01 09:00:00 TS 26.0150 -87.3192 main 379 349 P____________P AL041877 25.7000 -87.7575 HU 80 1 26.6449 -86.4425 HU 80 8 12
1877260N17327 1877 29 NA GM NOT_NAMED 1877-10-01 12:00:00 TS 26.3667 -87.2333 80 hurdat_atl main 345 326 O____________O hurdat_atl AL041877 26.0000 -87.7000 HU 80 1 27.1000 -86.3000 HU 80 6 14
1877260N17327 1877 29 NA GM NOT_NAMED 1877-10-01 15:00:00 TS 26.6150 -87.1474 main 332 314 P____________P AL041877 26.2500 -87.6500 HU 80 1 27.3450 -86.1423 HU 80 5 18
1877260N17327 1877 29 NA GM NOT_NAMED 1877-10-01 18:00:00 TS 26.8333 -87.0667 80 hurdat_atl main 314 295 O____________O hurdat_atl AL041877 26.5000 -87.6000 HU 80 1 27.5000 -86.0000 HU 80 5 14
1877260N17327 1877 29 NA GM NOT_NAMED 1877-10-01 21:00:00 TS 27.1050 -87.0049 main 295 279 P____________P AL041877 26.8075 -87.5575 HU 85 2 27.7000 -85.8999 HU 85 5 13
1877260N17327 1877 29 NA GM NOT_NAMED 1877-10-02 00:00:00 TS 27.3667 -86.9333 90 hurdat_atl main 279 271 O____________O hurdat_atl AL041877 27.1000 -87.5000 HU 90 2 27.9000 -85.8000 HU 90 5 19
1877260N17327 1877 29 NA GM NOT_NAMED 1877-10-02 03:00:00 TS 27.5742 -86.8266 main 271 246 P____________P AL041877 27.3075 -87.4149 HU 90 2 28.1075 -85.6501 HU 90 5 27
1877260N17327 1877 29 NA GM NOT_NAMED 1877-10-02 06:00:00 TS 27.7667 -86.7000 90 hurdat_atl main 246 222 O____________O hurdat_atl AL041877 27.5000 -87.3000 HU 90 2 28.3000 -85.5000 HU 90 4 29
1877260N17327 1877 29 NA GM NOT_NAMED 1877-10-02 09:00:00 TS 27.9633 -86.5839 main 222 193 P____________P AL041877 27.7199 -87.1797 HU 90 2 28.4500 -85.3924 HU 92 5 28
1877260N17327 1877 29 NA GM NOT_NAMED 1877-10-02 12:00:00 TS 28.2000 -86.4333 90 hurdat_atl main 193 154 O____________O hurdat_atl AL041877 28.0000 -87.0000 HU 90 2 28.6000 -85.3000 HU 95 6 30
1877260N17327 1877 29 NA GM NOT_NAMED 1877-10-02 15:00:00 TS 28.5209 -86.2127 main 154 116 P____________P AL041877 28.3851 -86.7153 HU 90 2 28.7925 -85.2074 HU 97 8 32
1877260N17327 1877 29 NA GM NOT_NAMED 1877-10-02 18:00:00 TS 28.8667 -85.9667 90 hurdat_atl main 106 67 O____________O hurdat_atl AL041877 28.8000 -86.4000 HU 90 2 29.0000 -85.1000 MH 100 8 32
1877260N17327 1877 29 NA GM NOT_NAMED 1877-10-02 21:00:00 TS 29.1770 -85.7439 main 62 24 P____________P AL041877 29.1655 -86.1408 HU 95 2 29.2000 -84.9500 MH 95 7 32
1877260N17327 1877 29 NA GM NOT_NAMED 1877-10-03 00:00:00 TS 29.4667 -85.5333 100 hurdat_atl main 24 0 O____________O hurdat_atl AL041877 29.5000 -85.9000 HU 100 3 29.4000 -84.8000 HU 90 6 28
1877260N17327 1877 29 NA GM NOT_NAMED 1877-10-03 03:00:00 TS 29.7356 -85.3934 main 0 0 P____________P AL041877 29.8034 -85.7439 HU 100 3 29.6000 -84.6924 HU 82 6 32
1877260N17327 1877 29 NA NA NOT_NAMED 1877-10-03 05:00:00 TS 29.9111 -85.2102 100 hurdat_atl main 0 0 O____________P hurdat_atl AL041877 30.0000 -85.5000 L HU 100 3 29.7333 -84.6307 HU 77 8 47
1877260N17327 1877 29 NA NA NOT_NAMED 1877-10-03 06:00:00 TS 30.0000 -85.0667 90 hurdat_atl main 0 0 O____________O hurdat_atl AL041877 30.1000 -85.3000 HU 90 2 29.8000 -84.6000 HU 75 8 50
1877260N17327 1877 29 NA NA NOT_NAMED 1877-10-03 09:00:00 TS 30.2427 -84.7608 main 0 0 P____________P AL041877 30.3755 -84.8690 HU 80 1 29.9773 -84.5445 HU 67 7 44
1877260N17327 1877 29 NA NA NOT_NAMED 1877-10-03 12:00:00 TS 30.5333 -84.4667 70 hurdat_atl main 0 0 O____________O hurdat_atl AL041877 30.7000 -84.5000 HU 70 1 30.2000 -84.4000 TS 60 10 44
1877260N17327 1877 29 NA NA NOT_NAMED 1877-10-03 15:00:00 TS 30.9410 -83.9684 main 0 0 P____________P AL041877 31.1626 -83.9301 HU 60 0 30.4977 -84.0449 TS 52 13 45
1877260N17327 1877 29 NA NA NOT_NAMED 1877-10-03 18:00:00 TS 31.4333 -83.4000 50 hurdat_atl main 0 0 O____________O hurdat_atl AL041877 31.7000 -83.3000 TS 50 0 30.9000 -83.6000 TS 45 14 43
1877260N17327 1877 29 NA NA NOT_NAMED 1877-10-03 21:00:00 TS 31.9605 -82.8711 main 0 0 P____________P AL041877 32.2421 -82.7068 TS 45 0 31.3974 -83.1996 TS 40 14 39
1877260N17327 1877 29 NA NA NOT_NAMED 1877-10-04 00:00:00 TS 32.5333 -82.3333 40 hurdat_atl main 0 0 O____________O hurdat_atl AL041877 32.8000 -82.1000 TS 40 0 32.0000 -82.8000 TS 35 15 38
1877260N17327 1877 29 NA NA NOT_NAMED 1877-10-04 03:00:00 TS 33.1251 -81.8053 main 0 0 P____________P AL041877 33.3495 -81.4715 TS 40 0 32.6764 -82.4728 TS 32 15 38
1877260N17327 1877 29 NA NA NOT_NAMED 1877-10-04 06:00:00 TS 33.7333 -81.2000 40 hurdat_atl main 0 0 O____________O hurdat_atl AL041877 33.9000 -80.8000 TS 40 0 33.4000 -82.0000 TD 30 16 45
1877260N17327 1877 29 NA NA NOT_NAMED 1877-10-04 09:00:00 TS 34.2501 -80.4704 main 0 0 P____________P AL041877 34.3893 -80.0916 TS 45 0 33.9719 -81.2278 TD 30 18 48
1877260N17327 1877 29 NA NA NOT_NAMED 1877-10-04 12:00:00 MX 34.9333 -79.6000 50 hurdat_atl main 0 0 O____________O hurdat_atl AL041877 35.0000 -79.3000 EX 50 -4 34.8000 -80.2000 TD 30 23 41
1877260N17327 1877 29 NA NA NOT_NAMED 1877-10-04 15:00:00 MX 36.0253 -78.6049 main 0 0 P____________P AL041877 35.8514 -78.4219 EX 50 -4 36.3729 -78.9709 TD 40 29 37
1877260N17327 1877 29 NA NA NOT_NAMED 1877-10-04 18:00:00 ET 37.2333 -77.4667 50 hurdat_atl main 0 0 O____________O hurdat_atl AL041877 36.9000 -77.4000 EX 50 -4 37.9000 -77.6000 EX 50 29 40
1877260N17327 1877 29 NA NA NOT_NAMED 1877-10-04 21:00:00 ET 38.2686 -76.2279 main 0 0 P____________P AL041877 38.1300 -76.1982 EX 55 -4 38.5458 -76.2875 EX 55 28 45
1877260N17327 1877 29 NA NA NOT_NAMED 1877-10-05 00:00:00 ET 39.2000 -74.9333 60 hurdat_atl main 0 0 O____________O hurdat_atl AL041877 39.3000 -74.9000 EX 60 -4 39.0000 -75.0000 EX 60 27 48
1877260N17327 1877 29 NA NA NOT_NAMED 1877-10-05 03:00:00 ET 40.0551 -73.6907 main 25 8 P____________P AL041877 40.1375 -73.6742 EX 60 -4 39.8903 -73.7239 EX 60 25 50
1877260N17327 1877 29 NA NA NOT_NAMED 1877-10-05 06:00:00 ET 40.8000 -72.4000 60 hurdat_atl main 16 11 O____________O hurdat_atl AL041877 40.8000 -72.4000 EX 60 -4 40.8000 -72.4000 EX 60 24 56
1877260N17327 1877 29 NA NA NOT_NAMED 1877-10-05 09:00:00 ET 41.4049 -71.0156 main 11 0 P____________P AL041877 41.3975 -71.0186 EX 55 -4 41.4197 -71.0096 EX 55 25 61
1877260N17327 1877 29 NA NA NOT_NAMED 1877-10-05 12:00:00 ET 42.0000 -69.5000 50 hurdat_atl main 46 46 O____________O hurdat_atl AL041877 42.0000 -69.5000 EX 50 -4 42.0000 -69.5000 EX 50 27 61
1877260N17327 1877 29 NA NA NOT_NAMED 1877-10-05 15:00:00 ET 42.7164 -67.8131 main 174 22 P____________P AL041877 42.7189 -67.8120 EX 50 -4 42.7116 -67.8154 EX 50 30 60
1877260N17327 1877 29 NA NA NOT_NAMED 1877-10-05 18:00:00 ET 43.5000 -66.0000 50 hurdat_atl main 19 O____________O hurdat_atl AL041877 43.5000 -66.0000 EX 50 -4 43.5000 -66.0000 EX 50 31 59

IBTrACS Databaseについて

本データベースは、米国NOAAが公開する1842年以降の世界の熱帯低気圧のベストトラックデータアーカイブInternational Best Track Archive for Climate Stewardship (IBTrACS)を、ウェブで閲覧しやすい形式に変換したものです。

最終更新日:2021-12-03